Terminal Aerodrome Forecast
Issued by NWS Atlanta, GA

Home | Current Version | Previous Version | Text Only | Print | Product List | Glossary On
Versions: 1 2 3 4 5 6 7 8 9 10 11 12 13 14 15 16
000
FTUS42 KFFC 231048 AAB
TAFMCN
TAF AMD
KMCN 231048Z 2311/2406 VRB02KT 6SM HZ BKN035
      TEMPO 2311/2312 1/4SM FG BKN010
     FM231200 14002KT 5SM BR BKN015
     FM231600 17005KT P6SM BKN025
     FM231800 17009KT P6SM BKN035 BKN100
     FM240000 16007KT P6SM SCT040 BKN120=

USA.gov is the U.S. government's official web portal to all federal, state and local government web resources and services.